Aviation Digital Data Service (ADDS)

Output produced by METARs form (2013 UTC 05 March 2015)
found at http://www.aviationweather.gov/adds/metars/
 
KALB 051733Z 0518/0618 30015KT P6SM SCT050 BKN120 
     FM060100 33010KT P6SM SCT050 
     FM060900 VRB03KT P6SM SKC 
     FM061500 32006KT P6SM SKC